createdAt,value
2022-12-03T00:03:55.392Z,3.50
2022-12-03T00:07:56.645Z,3.50
2022-12-03T00:11:57.845Z,3.60
2022-12-03T00:15:58.992Z,3.40
2022-12-03T00:20:00.159Z,3.50
2022-12-03T00:24:01.354Z,3.60
2022-12-03T00:28:02.553Z,3.40
2022-12-03T00:32:03.883Z,3.50
2022-12-03T00:36:05.754Z,3.40
2022-12-03T00:40:08.046Z,3.40
2022-12-03T00:44:11.107Z,3.30
2022-12-03T00:48:12.171Z,3.30
2022-12-03T00:52:13.342Z,3.30
2022-12-03T00:56:14.739Z,3.30
2022-12-03T01:00:16.266Z,3.40
2022-12-03T01:04:17.431Z,3.50
2022-12-03T01:08:18.731Z,3.50
2022-12-03T01:12:19.888Z,3.50
2022-12-03T01:16:21.209Z,3.50
2022-12-03T01:20:22.332Z,3.30
2022-12-03T01:24:23.510Z,3.40
2022-12-03T01:28:24.578Z,3.40
2022-12-03T01:32:25.754Z,3.40
2022-12-03T01:36:26.926Z,3.30
2022-12-03T01:40:28.255Z,3.30
2022-12-03T01:44:34.445Z,3.40
2022-12-03T01:48:37.924Z,3.50
2022-12-03T01:52:40.199Z,3.50
2022-12-03T01:56:41.391Z,3.70
2022-12-03T02:00:42.563Z,3.80
2022-12-03T02:04:43.878Z,3.80
2022-12-03T02:08:46.356Z,3.70
2022-12-03T02:13:00.404Z,3.50
2022-12-03T02:17:01.558Z,3.60
2022-12-03T02:21:15.213Z,3.50
2022-12-03T02:25:26.144Z,3.50
2022-12-03T02:29:27.322Z,3.60
2022-12-03T02:33:29.394Z,3.60
2022-12-03T02:37:33.963Z,3.60
2022-12-03T02:41:53.518Z,3.60
2022-12-03T02:45:57.800Z,3.60
2022-12-03T02:49:59.850Z,3.70
2022-12-03T02:54:01.241Z,3.70
2022-12-03T02:58:03.831Z,3.70
2022-12-03T03:02:05.145Z,3.80
2022-12-03T03:06:08.064Z,3.70
2022-12-03T03:10:12.946Z,3.80
2022-12-03T03:14:14.119Z,3.60
2022-12-03T03:18:15.990Z,3.70
2022-12-03T03:22:17.959Z,3.70
2022-12-03T03:26:19.171Z,3.90
2022-12-03T03:30:20.346Z,3.80
2022-12-03T03:34:21.424Z,3.60
2022-12-03T03:38:23.577Z,3.70
2022-12-03T03:42:24.958Z,3.90
2022-12-03T03:46:27.395Z,3.90
2022-12-03T03:50:30.826Z,4.00
2022-12-03T03:54:32.402Z,4.00
2022-12-03T03:58:34.673Z,3.90
2022-12-03T04:02:36.034Z,3.80
2022-12-03T04:06:37.236Z,3.90
2022-12-03T04:10:56.644Z,4.00
2022-12-03T04:14:58.148Z,4.00
2022-12-03T04:18:59.314Z,3.90
2022-12-03T04:23:00.752Z,4.00
2022-12-03T04:27:20.367Z,3.90
2022-12-03T04:31:39.919Z,4.10
2022-12-03T04:35:44.138Z,4.20
2022-12-03T04:39:45.628Z,4.00
2022-12-03T04:44:05.336Z,3.90
2022-12-03T04:48:06.523Z,3.90
2022-12-03T04:52:08.987Z,3.90
2022-12-03T04:56:12.063Z,3.90
2022-12-03T05:00:14.752Z,3.90
2022-12-03T05:04:18.462Z,3.80
2022-12-03T05:08:19.564Z,3.70
2022-12-03T05:12:20.697Z,3.90
2022-12-03T05:16:21.963Z,4.00
2022-12-03T05:20:41.218Z,3.90
2022-12-03T05:24:42.390Z,3.80
2022-12-03T05:28:43.670Z,3.80
2022-12-03T05:32:44.755Z,3.70
2022-12-03T05:36:45.940Z,3.70
2022-12-03T05:40:46.990Z,3.80
2022-12-03T05:44:48.165Z,3.90
2022-12-03T05:48:49.315Z,3.70
2022-12-03T05:52:50.612Z,3.80
2022-12-03T05:56:51.792Z,3.70
2022-12-03T06:00:52.857Z,3.70
2022-12-03T06:04:54.293Z,3.80
2022-12-03T06:08:55.617Z,3.90
2022-12-03T06:12:56.705Z,3.80
2022-12-03T06:16:57.905Z,3.90
2022-12-03T06:20:59.068Z,3.60
2022-12-03T06:25:06.217Z,3.80
2022-12-03T06:29:03.146Z,3.80
2022-12-03T06:33:07.059Z,3.70
2022-12-03T06:37:08.280Z,3.70
2022-12-03T06:41:09.382Z,3.70
2022-12-03T06:45:11.387Z,3.80
2022-12-03T06:49:12.582Z,3.90
2022-12-03T06:53:13.679Z,3.80
2022-12-03T06:57:15.571Z,3.70
2022-12-03T07:01:16.828Z,3.60
2022-12-03T07:05:18.203Z,3.70
2022-12-03T07:09:19.456Z,3.60
2022-12-03T07:13:20.942Z,3.70
2022-12-03T07:17:22.064Z,3.70
2022-12-03T07:21:23.143Z,3.70
2022-12-03T07:25:24.233Z,3.60
2022-12-03T07:29:25.437Z,3.60
2022-12-03T07:33:26.611Z,3.40
2022-12-03T07:37:27.725Z,3.70
2022-12-03T07:41:28.924Z,3.90
2022-12-03T07:45:30.220Z,4.00
2022-12-03T07:49:32.106Z,4.00
2022-12-03T07:53:35.203Z,4.10
2022-12-03T07:57:36.389Z,4.00
2022-12-03T08:01:37.809Z,4.10
2022-12-03T08:05:39.080Z,4.20
2022-12-03T08:09:40.355Z,4.20
2022-12-03T08:13:41.930Z,4.20
2022-12-03T08:17:45.428Z,4.20
2022-12-03T08:21:46.494Z,4.40
2022-12-03T08:25:49.682Z,4.30
2022-12-03T08:29:54.661Z,4.40
2022-12-03T08:33:59.651Z,4.30
2022-12-03T08:38:07.596Z,4.20
2022-12-03T08:42:43.387Z,4.30
2022-12-03T08:46:44.578Z,4.10
2022-12-03T08:50:46.154Z,4.20
2022-12-03T08:54:53.502Z,4.20
2022-12-03T08:59:01.700Z,4.20
2022-12-03T09:03:04.582Z,4.30
2022-12-03T09:07:05.674Z,4.40
2022-12-03T09:11:06.938Z,4.30
2022-12-03T09:15:08.377Z,4.50
2022-12-03T09:19:09.437Z,4.60
2022-12-03T09:23:10.521Z,4.50
2022-12-03T09:27:11.682Z,4.50
2022-12-03T09:31:12.844Z,4.50
2022-12-03T09:35:14.129Z,4.60
2022-12-03T09:39:15.216Z,4.60
2022-12-03T09:43:17.299Z,4.50
2022-12-03T09:47:18.758Z,4.70
2022-12-03T09:51:19.814Z,4.80
2022-12-03T09:55:24.432Z,4.80
2022-12-03T09:59:33.950Z,4.80
2022-12-03T10:03:36.457Z,4.80
2022-12-03T10:07:38.033Z,4.70
2022-12-03T10:11:39.868Z,4.80
2022-12-03T10:15:41.041Z,4.80
2022-12-03T10:19:42.315Z,4.80
2022-12-03T10:23:46.468Z,4.80
2022-12-03T10:28:03.385Z,5.00
2022-12-03T10:32:11.133Z,5.10
2022-12-03T10:36:24.023Z,5.10
2022-12-03T10:40:28.564Z,5.10
2022-12-03T10:44:29.924Z,5.20
2022-12-03T10:48:31.089Z,5.20
2022-12-03T10:52:32.356Z,5.30
2022-12-03T10:56:33.526Z,5.20
2022-12-03T11:00:35.027Z,5.10
2022-12-03T11:04:36.298Z,5.10
2022-12-03T11:08:37.522Z,5.10
2022-12-03T11:12:38.666Z,5.30
2022-12-03T11:16:43.652Z,5.40
2022-12-03T11:20:48.618Z,5.50
2022-12-03T11:24:59.076Z,5.40
2022-12-03T11:29:00.259Z,5.50
2022-12-03T11:33:03.698Z,5.60
2022-12-03T11:37:14.722Z,5.50
2022-12-03T11:41:25.053Z,5.90
2022-12-03T11:45:30.037Z,5.90
2022-12-03T11:49:34.807Z,5.90
2022-12-03T11:53:35.887Z,5.60
2022-12-03T11:57:38.975Z,5.50
2022-12-03T12:01:40.745Z,5.40
2022-12-03T12:05:41.916Z,5.40
2022-12-03T12:09:54.427Z,5.40
2022-12-03T12:13:58.375Z,5.50
2022-12-03T12:18:37.067Z,5.40
2022-12-03T12:22:38.643Z,5.30
2022-12-03T12:26:43.528Z,5.30
2022-12-03T12:30:44.582Z,5.40
2022-12-03T12:34:48.255Z,5.30
2022-12-03T12:38:49.447Z,5.40
2022-12-03T12:42:59.177Z,5.40
2022-12-03T12:47:03.680Z,5.30
2022-12-03T12:51:13.810Z,5.30
2022-12-03T12:55:16.687Z,5.10
2022-12-03T12:59:20.195Z,5.30
2022-12-03T13:03:25.085Z,5.30
2022-12-03T13:07:26.286Z,5.40
2022-12-03T13:11:41.108Z,5.30
2022-12-03T13:15:52.413Z,5.30
2022-12-03T13:20:03.628Z,5.30
2022-12-03T13:24:04.783Z,5.20
2022-12-03T13:28:07.375Z,5.30
2022-12-03T13:32:15.456Z,5.20
2022-12-03T13:36:19.450Z,5.20
2022-12-03T13:40:27.339Z,5.30
2022-12-03T13:44:31.417Z,5.20
2022-12-03T13:48:35.029Z,5.20
2022-12-03T13:52:36.291Z,5.30
2022-12-03T13:56:37.380Z,5.40
2022-12-03T14:00:38.607Z,5.50
2022-12-03T14:04:40.203Z,5.50
2022-12-03T14:08:41.356Z,5.50
2022-12-03T14:12:42.428Z,5.50
2022-12-03T14:16:43.560Z,5.60
2022-12-03T14:20:44.629Z,5.50
2022-12-03T14:24:45.812Z,5.60
2022-12-03T14:28:47.019Z,5.60
2022-12-03T14:32:48.198Z,5.50
2022-12-03T14:36:49.395Z,5.40
2022-12-03T14:40:50.481Z,5.30
2022-12-03T14:44:51.668Z,5.20
2022-12-03T14:48:52.752Z,5.20
2022-12-03T14:52:53.953Z,5.10
2022-12-03T14:56:55.141Z,5.20
2022-12-03T15:00:56.241Z,5.20
2022-12-03T15:04:57.378Z,5.10
2022-12-03T15:08:58.550Z,5.10
2022-12-03T15:12:59.853Z,5.10
2022-12-03T15:17:01.071Z,5.20
2022-12-03T15:21:02.225Z,5.10
2022-12-03T15:25:03.681Z,5.10
2022-12-03T15:29:04.774Z,5.10
2022-12-03T15:33:05.833Z,5.00
2022-12-03T15:37:08.420Z,5.00
2022-12-03T15:41:23.551Z,5.00
2022-12-03T15:45:24.723Z,5.10
2022-12-03T15:49:25.899Z,5.20
2022-12-03T15:53:26.965Z,5.30
2022-12-03T15:57:28.966Z,5.40
2022-12-03T16:01:30.198Z,5.60
2022-12-03T16:05:31.639Z,5.60
2022-12-03T16:09:32.792Z,5.60
2022-12-03T16:13:33.890Z,5.30
2022-12-03T16:17:34.971Z,5.10
2022-12-03T16:21:36.258Z,5.30
2022-12-03T16:25:37.515Z,5.40
2022-12-03T16:29:38.610Z,5.30
2022-12-03T16:33:39.697Z,5.50
2022-12-03T16:37:40.841Z,5.40
2022-12-03T16:41:42.027Z,5.30
2022-12-03T16:45:57.170Z,5.30
2022-12-03T16:49:58.354Z,5.30
2022-12-03T16:53:59.500Z,5.40
2022-12-03T16:58:01.185Z,5.50
2022-12-03T17:02:02.625Z,5.50
2022-12-03T17:06:04.218Z,5.40
2022-12-03T17:10:06.248Z,5.20
2022-12-03T17:14:07.394Z,5.00
2022-12-03T17:18:08.982Z,4.90
2022-12-03T17:22:10.156Z,4.90
2022-12-03T17:26:11.260Z,4.90
2022-12-03T17:30:13.091Z,4.90
2022-12-03T17:34:14.272Z,4.90
2022-12-03T17:38:17.015Z,4.90
2022-12-03T17:42:18.391Z,5.10
2022-12-03T17:46:19.721Z,4.90
2022-12-03T17:50:20.940Z,4.90
2022-12-03T17:54:22.108Z,5.00
2022-12-03T17:58:23.201Z,5.00
2022-12-03T18:02:24.284Z,5.00
2022-12-03T18:06:25.646Z,4.90
2022-12-03T18:10:26.835Z,4.80
2022-12-03T18:14:27.915Z,4.80
2022-12-03T18:18:29.105Z,4.80
2022-12-03T18:22:30.890Z,5.00
2022-12-03T18:26:32.268Z,4.90
2022-12-03T18:30:34.237Z,4.90
2022-12-03T18:34:35.325Z,4.90
2022-12-03T18:38:36.396Z,4.80
2022-12-03T18:42:37.490Z,4.80
2022-12-03T18:46:52.897Z,4.80
2022-12-03T18:50:42.657Z,4.80
2022-12-03T18:54:44.442Z,4.80
2022-12-03T18:58:45.597Z,4.70
2022-12-03T19:03:02.397Z,4.60
2022-12-03T19:06:49.638Z,4.60
2022-12-03T19:10:56.333Z,4.70
2022-12-03T19:14:57.525Z,4.60
2022-12-03T19:18:58.607Z,4.50
2022-12-03T19:22:59.678Z,4.60
2022-12-03T19:27:00.775Z,4.60
2022-12-03T19:31:05.123Z,4.60
2022-12-03T19:35:07.394Z,4.50
2022-12-03T19:39:08.546Z,4.60
2022-12-03T19:43:09.726Z,4.50
2022-12-03T19:47:10.832Z,4.50
2022-12-03T19:51:32.981Z,4.50
2022-12-03T19:55:17.898Z,4.60
2022-12-03T19:59:19.101Z,4.70
2022-12-03T20:03:20.443Z,4.50
2022-12-03T20:07:21.542Z,4.40
2022-12-03T20:11:25.959Z,4.60
2022-12-03T20:15:27.518Z,4.40
2022-12-03T20:19:28.694Z,4.40
2022-12-03T20:23:29.771Z,4.50
2022-12-03T20:27:32.179Z,4.60
2022-12-03T20:31:33.540Z,4.70
2022-12-03T20:35:34.868Z,4.70
2022-12-03T20:39:36.039Z,4.60
2022-12-03T20:43:37.706Z,4.50
2022-12-03T20:47:38.801Z,4.60
2022-12-03T20:51:41.671Z,4.40
2022-12-03T20:55:42.842Z,4.40
2022-12-03T20:59:44.068Z,4.50
2022-12-03T21:03:45.951Z,4.50
2022-12-03T21:07:48.129Z,4.60
2022-12-03T21:11:49.244Z,4.80
2022-12-03T21:15:54.116Z,4.90
2022-12-03T21:19:55.389Z,4.80
2022-12-03T21:23:57.084Z,4.70
2022-12-03T21:27:58.238Z,4.60
2022-12-03T21:31:59.343Z,4.60
2022-12-03T21:36:01.231Z,4.70
2022-12-03T21:40:02.596Z,4.60
2022-12-03T21:44:03.922Z,4.60
2022-12-03T21:48:05.590Z,4.70
2022-12-03T21:52:06.769Z,4.50
2022-12-03T21:56:11.667Z,4.40
2022-12-03T22:00:14.274Z,4.60
2022-12-03T22:04:15.567Z,4.60
2022-12-03T22:08:17.355Z,4.80
2022-12-03T22:12:18.519Z,4.60
2022-12-03T22:16:21.167Z,4.50
2022-12-03T22:20:22.497Z,4.50
2022-12-03T22:24:23.601Z,4.50
2022-12-03T22:28:24.865Z,4.60
2022-12-03T22:32:26.217Z,4.80
2022-12-03T22:36:27.398Z,4.90
2022-12-03T22:40:28.674Z,4.90
2022-12-03T22:44:30.180Z,4.60
2022-12-03T22:48:35.034Z,4.50
2022-12-03T22:52:36.220Z,4.50
2022-12-03T22:56:37.877Z,4.30
2022-12-03T23:00:40.456Z,4.40
2022-12-03T23:04:41.619Z,4.50
2022-12-03T23:08:42.715Z,4.40
2022-12-03T23:12:43.870Z,4.50
2022-12-03T23:16:45.049Z,4.50
2022-12-03T23:20:48.632Z,4.60
2022-12-03T23:24:49.783Z,4.60
2022-12-03T23:28:50.863Z,4.50
2022-12-03T23:32:51.936Z,4.40
2022-12-03T23:36:53.044Z,4.30
2022-12-03T23:40:54.231Z,4.40
2022-12-03T23:44:55.338Z,4.40
2022-12-03T23:48:58.469Z,4.50
2022-12-03T23:52:59.666Z,4.60
2022-12-03T23:57:00.787Z,4.30
